createdAt,value
2023-03-14T00:00:27.730Z,636.00
2023-03-14T00:01:27.712Z,630.00
2023-03-14T00:02:27.831Z,634.00
2023-03-14T00:03:27.703Z,636.00
2023-03-14T00:04:27.711Z,637.00
2023-03-14T00:05:26.715Z,636.00
2023-03-14T00:06:27.735Z,627.00
2023-03-14T00:07:27.716Z,638.00
2023-03-14T00:08:27.728Z,633.00
2023-03-14T00:09:27.745Z,632.00
2023-03-14T00:10:27.742Z,634.00
2023-03-14T00:11:27.731Z,631.00
2023-03-14T00:12:27.739Z,631.00
2023-03-14T00:13:27.749Z,629.00
2023-03-14T00:14:27.777Z,634.00
2023-03-14T00:15:27.783Z,635.00
2023-03-14T00:16:27.847Z,642.00
2023-03-14T00:17:26.784Z,646.00
2023-03-14T00:18:27.807Z,645.00
2023-03-14T00:19:27.813Z,644.00
2023-03-14T00:20:27.845Z,641.00
2023-03-14T00:21:27.813Z,643.00
2023-03-14T00:22:27.833Z,642.00
2023-03-14T00:23:27.833Z,644.00
2023-03-14T00:24:27.853Z,642.00
2023-03-14T00:25:27.840Z,634.00
2023-03-14T00:26:26.829Z,629.00
2023-03-14T00:27:26.844Z,630.00
2023-03-14T00:28:27.855Z,627.00
2023-03-14T00:29:27.885Z,637.00
2023-03-14T00:30:27.864Z,642.00
2023-03-14T00:31:27.938Z,637.00
2023-03-14T00:32:26.959Z,631.00
2023-03-14T00:33:27.902Z,634.00
2023-03-14T00:34:27.928Z,629.00
2023-03-14T00:35:26.914Z,630.00
2023-03-14T00:36:27.926Z,628.00
2023-03-14T00:37:27.939Z,636.00
2023-03-14T00:38:26.964Z,627.00
2023-03-14T00:39:27.997Z,637.00
2023-03-14T00:40:26.983Z,642.00
2023-03-14T00:41:28.003Z,635.00
2023-03-14T00:42:27.011Z,633.00
2023-03-14T00:43:27.017Z,628.00
2023-03-14T00:44:28.056Z,630.00
2023-03-14T00:45:27.047Z,623.00
2023-03-14T00:46:28.173Z,626.00
2023-03-14T00:47:28.068Z,628.00
2023-03-14T00:48:28.105Z,631.00
2023-03-14T00:49:27.094Z,635.00
2023-03-14T00:50:27.099Z,633.00
2023-03-14T00:51:28.099Z,626.00
2023-03-14T00:52:28.113Z,629.00
2023-03-14T00:53:27.113Z,621.00
2023-03-14T00:54:28.140Z,624.00
2023-03-14T00:55:28.142Z,620.00
2023-03-14T00:56:28.144Z,620.00
2023-03-14T00:57:28.165Z,623.00
2023-03-14T00:58:28.168Z,626.00
2023-03-14T00:59:28.207Z,624.00
2023-03-14T01:00:28.180Z,620.00
2023-03-14T01:01:28.320Z,620.00
2023-03-14T01:02:27.291Z,617.00
2023-03-14T01:03:28.211Z,620.00
2023-03-14T01:04:27.239Z,619.00
2023-03-14T01:05:28.248Z,621.00
2023-03-14T01:06:27.279Z,616.00
2023-03-14T01:07:28.265Z,616.00
2023-03-14T01:08:28.291Z,620.00
2023-03-14T01:09:28.305Z,616.00
2023-03-14T01:10:28.337Z,615.00
2023-03-14T01:11:27.346Z,609.00
2023-03-14T01:12:28.366Z,611.00
2023-03-14T01:13:28.380Z,611.00
2023-03-14T01:14:28.404Z,618.00
2023-03-14T01:15:28.429Z,614.00
2023-03-14T01:16:28.438Z,612.00
2023-03-14T01:17:28.468Z,607.00
2023-03-14T01:18:28.477Z,611.00
2023-03-14T01:19:27.546Z,617.00
2023-03-14T01:20:28.532Z,609.00
2023-03-14T01:21:28.538Z,608.00
2023-03-14T01:22:27.541Z,612.00
2023-03-14T01:23:28.567Z,611.00
2023-03-14T01:24:28.573Z,611.00
2023-03-14T01:25:28.582Z,609.00
2023-03-14T01:26:27.659Z,608.00
2023-03-14T01:27:28.588Z,610.00
2023-03-14T01:28:28.595Z,613.00
2023-03-14T01:29:28.621Z,608.00
2023-03-14T01:30:27.641Z,611.00
2023-03-14T01:31:28.873Z,608.00
2023-03-14T01:32:28.683Z,606.00
2023-03-14T01:33:28.675Z,607.00
2023-03-14T01:34:28.682Z,601.00
2023-03-14T01:35:28.703Z,602.00
2023-03-14T01:36:30.492Z,606.00
2023-03-14T01:37:28.797Z,604.00
2023-03-14T01:38:28.704Z,597.00
2023-03-14T01:39:28.697Z,597.00
2023-03-14T01:40:28.670Z,600.00
2023-03-14T01:41:28.676Z,596.00
2023-03-14T01:42:28.667Z,595.00
2023-03-14T01:43:28.711Z,597.00
2023-03-14T01:44:28.652Z,595.00
2023-03-14T01:45:27.680Z,597.00
2023-03-14T01:46:27.652Z,599.00
2023-03-14T01:47:27.637Z,601.00
2023-03-14T01:48:27.610Z,602.00
2023-03-14T01:49:27.618Z,599.00
2023-03-14T01:50:28.596Z,598.00
2023-03-14T01:51:28.599Z,593.00
2023-03-14T01:52:28.700Z,592.00
2023-03-14T01:53:28.575Z,597.00
2023-03-14T01:54:28.587Z,591.00
2023-03-14T01:55:28.570Z,602.00
2023-03-14T01:56:28.555Z,597.00
2023-03-14T01:57:28.575Z,595.00
2023-03-14T01:58:28.556Z,587.00
2023-03-14T01:59:28.540Z,596.00
2023-03-14T02:00:28.576Z,595.00
2023-03-14T02:01:28.545Z,595.00
2023-03-14T02:02:27.571Z,596.00
2023-03-14T02:03:28.577Z,590.00
2023-03-14T02:04:27.505Z,589.00
2023-03-14T02:05:28.510Z,591.00
2023-03-14T02:06:28.501Z,589.00
2023-03-14T02:07:28.505Z,588.00
2023-03-14T02:08:28.528Z,595.00
2023-03-14T02:09:27.475Z,588.00
2023-03-14T02:10:28.476Z,595.00
2023-03-14T02:11:28.467Z,589.00
2023-03-14T02:12:28.456Z,587.00
2023-03-14T02:13:28.458Z,590.00
2023-03-14T02:14:27.436Z,588.00
2023-03-14T02:15:28.440Z,591.00
2023-03-14T02:16:28.422Z,586.00
2023-03-14T02:17:28.418Z,589.00
2023-03-14T02:18:28.410Z,589.00
2023-03-14T02:19:28.393Z,593.00
2023-03-14T02:20:28.389Z,596.00
2023-03-14T02:21:28.389Z,599.00
2023-03-14T02:22:27.374Z,593.00
2023-03-14T02:23:28.378Z,594.00
2023-03-14T02:24:28.377Z,597.00
2023-03-14T02:25:28.352Z,593.00
2023-03-14T02:26:28.361Z,582.00
2023-03-14T02:27:28.340Z,594.00
2023-03-14T02:28:28.338Z,591.00
2023-03-14T02:29:28.320Z,589.00
2023-03-14T02:30:28.331Z,588.00
2023-03-14T02:31:28.376Z,587.00
2023-03-14T02:32:28.323Z,578.00
2023-03-14T02:33:28.316Z,583.00
2023-03-14T02:34:28.295Z,587.00
2023-03-14T02:35:28.366Z,583.00
2023-03-14T02:36:27.352Z,588.00
2023-03-14T02:37:28.365Z,585.00
2023-03-14T02:38:28.388Z,586.00
2023-03-14T02:39:28.394Z,584.00
2023-03-14T02:40:28.482Z,582.00
2023-03-14T02:41:28.696Z,584.00
2023-03-14T02:42:28.475Z,581.00
2023-03-14T02:43:27.488Z,577.00
2023-03-14T02:44:28.525Z,574.00
2023-03-14T02:45:28.552Z,580.00
2023-03-14T02:46:28.592Z,579.00
2023-03-14T02:47:27.607Z,581.00
2023-03-14T02:48:28.618Z,585.00
2023-03-14T02:49:27.643Z,576.00
2023-03-14T02:50:28.674Z,582.00
2023-03-14T02:51:27.733Z,584.00
2023-03-14T02:52:28.727Z,587.00
2023-03-14T02:53:27.769Z,588.00
2023-03-14T02:54:28.798Z,581.00
2023-03-14T02:55:28.846Z,585.00
2023-03-14T02:56:28.877Z,584.00
2023-03-14T02:57:28.884Z,579.00
2023-03-14T02:58:28.894Z,580.00
2023-03-14T02:59:28.906Z,576.00
2023-03-14T03:00:28.940Z,577.00
2023-03-14T03:01:28.987Z,584.00
2023-03-14T03:02:29.001Z,585.00
2023-03-14T03:03:29.069Z,590.00
2023-03-14T03:04:29.030Z,578.00
2023-03-14T03:05:29.031Z,573.00
2023-03-14T03:06:29.074Z,569.00
2023-03-14T03:07:29.086Z,570.00
2023-03-14T03:08:29.098Z,565.00
2023-03-14T03:09:29.120Z,574.00
2023-03-14T03:10:28.135Z,565.00
2023-03-14T03:11:28.182Z,564.00
2023-03-14T03:12:28.267Z,570.00
2023-03-14T03:13:29.191Z,572.00
2023-03-14T03:14:29.250Z,579.00
2023-03-14T03:15:29.436Z,596.00
2023-03-14T03:16:29.393Z,602.00
2023-03-14T03:17:29.314Z,600.00
2023-03-14T03:18:29.333Z,612.00
2023-03-14T03:19:29.376Z,632.00
2023-03-14T03:20:29.393Z,648.00
2023-03-14T03:21:29.409Z,647.00
2023-03-14T03:22:29.502Z,656.00
2023-03-14T03:23:29.462Z,663.00
2023-03-14T03:24:29.481Z,676.00
2023-03-14T03:25:29.522Z,701.00
2023-03-14T03:26:29.537Z,690.00
2023-03-14T03:27:29.574Z,719.00
2023-03-14T03:28:29.633Z,712.00
2023-03-14T03:29:29.580Z,695.00
2023-03-14T03:30:29.688Z,675.00
2023-03-14T03:31:29.626Z,718.00
2023-03-14T03:32:29.666Z,690.00
2023-03-14T03:33:29.643Z,695.00
2023-03-14T03:34:28.650Z,690.00
2023-03-14T03:35:28.651Z,712.00
2023-03-14T03:36:29.671Z,720.00
2023-03-14T03:37:29.668Z,733.00
2023-03-14T03:38:29.681Z,743.00
2023-03-14T03:39:29.670Z,780.00
2023-03-14T03:40:28.668Z,763.00
2023-03-14T03:41:28.685Z,751.00
2023-03-14T03:42:29.669Z,782.00
2023-03-14T03:43:29.676Z,798.00
2023-03-14T03:44:29.718Z,798.00
2023-03-14T03:45:29.694Z,774.00
2023-03-14T03:46:29.817Z,768.00
2023-03-14T03:47:29.728Z,807.00
2023-03-14T03:48:29.710Z,795.00
2023-03-14T03:49:28.711Z,757.00
2023-03-14T03:50:29.705Z,784.00
2023-03-14T03:51:29.707Z,781.00
2023-03-14T03:52:29.696Z,818.00
2023-03-14T03:53:33.585Z,777.00
2023-03-14T03:54:29.693Z,779.00
2023-03-14T03:55:29.740Z,781.00
2023-03-14T03:56:28.806Z,733.00
2023-03-14T03:57:29.846Z,761.00
2023-03-14T03:58:29.909Z,785.00
2023-03-14T03:59:29.924Z,789.00
2023-03-14T04:00:28.936Z,809.00
2023-03-14T04:01:29.925Z,790.00
2023-03-14T04:02:30.001Z,753.00
2023-03-14T04:03:30.012Z,705.00
2023-03-14T04:04:29.920Z,685.00
2023-03-14T04:05:29.915Z,730.00
2023-03-14T04:06:29.987Z,734.00
2023-03-14T04:07:28.898Z,715.00
2023-03-14T04:08:29.910Z,683.00
2023-03-14T04:09:29.901Z,687.00
2023-03-14T04:10:29.939Z,686.00
2023-03-14T04:11:29.904Z,678.00
2023-03-14T04:12:29.897Z,710.00
2023-03-14T04:13:30.059Z,681.00
2023-03-14T04:14:29.911Z,718.00
2023-03-14T04:15:29.915Z,763.00
2023-03-14T04:16:30.101Z,724.00
2023-03-14T04:17:29.984Z,707.00
2023-03-14T04:18:30.033Z,696.00
2023-03-14T04:19:30.011Z,687.00
2023-03-14T04:20:30.019Z,740.00
2023-03-14T04:21:29.013Z,747.00
2023-03-14T04:22:30.021Z,774.00
2023-03-14T04:23:29.029Z,797.00
2023-03-14T04:24:30.008Z,794.00
2023-03-14T04:25:30.055Z,783.00
2023-03-14T04:26:30.030Z,804.00
2023-03-14T04:27:30.055Z,746.00
2023-03-14T04:28:30.045Z,743.00
2023-03-14T04:29:30.041Z,778.00
2023-03-14T04:30:30.070Z,742.00
2023-03-14T04:31:30.177Z,749.00
2023-03-14T04:32:30.171Z,772.00
2023-03-14T04:33:30.097Z,792.00
2023-03-14T04:34:30.118Z,747.00
2023-03-14T04:35:29.115Z,781.00
2023-03-14T04:36:30.150Z,756.00
2023-03-14T04:37:30.182Z,732.00
2023-03-14T04:38:29.147Z,736.00
2023-03-14T04:39:30.163Z,719.00
2023-03-14T04:40:30.192Z,693.00
2023-03-14T04:41:30.188Z,720.00
2023-03-14T04:42:30.240Z,736.00
2023-03-14T04:43:30.234Z,749.00
2023-03-14T04:44:30.260Z,771.00
2023-03-14T04:45:30.275Z,787.00
2023-03-14T04:46:30.363Z,784.00
2023-03-14T04:47:30.304Z,795.00
2023-03-14T04:48:30.339Z,801.00
2023-03-14T04:49:30.309Z,798.00
2023-03-14T04:50:30.298Z,768.00
2023-03-14T04:51:29.322Z,760.00
2023-03-14T04:52:29.336Z,747.00
2023-03-14T04:53:32.845Z,715.00
2023-03-14T04:54:29.339Z,734.00
2023-03-14T04:55:29.332Z,753.00
2023-03-14T04:56:29.340Z,759.00
2023-03-14T04:57:30.318Z,735.00
2023-03-14T04:58:30.321Z,733.00
2023-03-14T04:59:30.307Z,755.00
2023-03-14T05:00:30.290Z,794.00
2023-03-14T05:01:30.364Z,754.00
2023-03-14T05:02:30.374Z,793.00
2023-03-14T05:03:30.279Z,783.00
2023-03-14T05:04:30.342Z,798.00
2023-03-14T05:05:30.246Z,785.00
2023-03-14T05:06:30.243Z,789.00
2023-03-14T05:07:30.244Z,777.00
2023-03-14T05:08:30.265Z,788.00
2023-03-14T05:09:30.221Z,805.00
2023-03-14T05:10:30.226Z,802.00
2023-03-14T05:11:30.220Z,796.00
2023-03-14T05:12:29.203Z,802.00
2023-03-14T05:13:30.228Z,783.00
2023-03-14T05:14:29.196Z,792.00
2023-03-14T05:15:30.194Z,784.00
2023-03-14T05:16:30.194Z,759.00
2023-03-14T05:17:30.157Z,777.00
2023-03-14T05:18:30.168Z,790.00
2023-03-14T05:19:29.140Z,773.00
2023-03-14T05:20:30.220Z,780.00
2023-03-14T05:21:30.142Z,757.00
2023-03-14T05:22:30.144Z,764.00
2023-03-14T05:23:29.135Z,749.00
2023-03-14T05:24:29.105Z,764.00
2023-03-14T05:25:32.524Z,759.00
2023-03-14T05:26:29.101Z,759.00
2023-03-14T05:27:29.095Z,753.00
2023-03-14T05:28:30.096Z,732.00
2023-03-14T05:29:29.082Z,742.00
2023-03-14T05:30:30.078Z,755.00
2023-03-14T05:31:30.139Z,747.00
2023-03-14T05:32:30.119Z,743.00
2023-03-14T05:33:30.085Z,760.00
2023-03-14T05:34:30.035Z,775.00
2023-03-14T05:35:30.037Z,789.00
2023-03-14T05:36:30.056Z,782.00
2023-03-14T05:37:30.032Z,777.00
2023-03-14T05:38:30.026Z,753.00
2023-03-14T05:39:30.036Z,751.00
2023-03-14T05:40:30.002Z,765.00
2023-03-14T05:41:29.005Z,753.00
2023-03-14T05:42:30.001Z,714.00
2023-03-14T05:43:29.006Z,730.00
2023-03-14T05:44:29.986Z,744.00
2023-03-14T05:45:30.059Z,732.00
2023-03-14T05:46:29.984Z,720.00
2023-03-14T05:47:29.973Z,739.00
2023-03-14T05:48:29.949Z,737.00
2023-03-14T05:49:30.008Z,755.00
2023-03-14T05:50:29.937Z,725.00
2023-03-14T05:51:29.930Z,714.00
2023-03-14T05:52:30.082Z,728.00
2023-03-14T05:53:29.915Z,730.00
2023-03-14T05:54:29.918Z,709.00
2023-03-14T05:55:28.906Z,698.00
2023-03-14T05:56:29.898Z,698.00
2023-03-14T05:57:29.894Z,743.00
2023-03-14T05:58:29.889Z,748.00
2023-03-14T05:59:29.909Z,747.00
2023-03-14T06:00:29.894Z,759.00
2023-03-14T06:01:30.795Z,745.00
2023-03-14T06:02:29.945Z,767.00
2023-03-14T06:03:29.905Z,763.00
2023-03-14T06:04:29.858Z,751.00
2023-03-14T06:05:29.849Z,736.00
2023-03-14T06:06:29.888Z,712.00
2023-03-14T06:07:29.830Z,750.00
2023-03-14T06:08:29.866Z,770.00
2023-03-14T06:09:29.819Z,722.00
2023-03-14T06:10:29.807Z,753.00
2023-03-14T06:11:29.791Z,758.00
2023-03-14T06:12:29.802Z,742.00
2023-03-14T06:13:29.786Z,778.00
2023-03-14T06:14:28.782Z,772.00
2023-03-14T06:15:29.786Z,785.00
2023-03-14T06:16:29.820Z,780.00
2023-03-14T06:17:29.745Z,765.00
2023-03-14T06:18:29.797Z,767.00
2023-03-14T06:19:29.723Z,762.00
2023-03-14T06:20:29.711Z,743.00
2023-03-14T06:21:29.721Z,713.00
2023-03-14T06:22:29.724Z,744.00
2023-03-14T06:23:29.788Z,736.00
2023-03-14T06:24:29.737Z,698.00
2023-03-14T06:25:28.698Z,657.00
2023-03-14T06:26:29.704Z,656.00
2023-03-14T06:27:29.682Z,658.00
2023-03-14T06:28:29.677Z,667.00
2023-03-14T06:29:28.689Z,646.00
2023-03-14T06:30:29.798Z,632.00
2023-03-14T06:31:29.819Z,634.00
2023-03-14T06:32:29.863Z,635.00
2023-03-14T06:33:29.867Z,652.00
2023-03-14T06:34:29.944Z,654.00
2023-03-14T06:35:28.989Z,645.00
2023-03-14T06:36:30.026Z,633.00
2023-03-14T06:37:30.049Z,627.00
2023-03-14T06:38:30.088Z,626.00
2023-03-14T06:39:30.150Z,631.00
2023-03-14T06:40:29.192Z,637.00
2023-03-14T06:41:29.235Z,644.00
2023-03-14T06:42:30.256Z,625.00
2023-03-14T06:43:29.303Z,633.00
2023-03-14T06:44:30.350Z,617.00
2023-03-14T06:45:30.408Z,617.00
2023-03-14T06:46:30.572Z,627.00
2023-03-14T06:47:30.519Z,638.00
2023-03-14T06:48:30.584Z,654.00
2023-03-14T06:49:30.654Z,630.00
2023-03-14T06:50:29.714Z,615.00
2023-03-14T06:51:30.750Z,622.00
2023-03-14T06:52:29.833Z,616.00
2023-03-14T06:53:30.851Z,621.00
2023-03-14T06:54:30.895Z,626.00
2023-03-14T06:55:29.973Z,639.00
2023-03-14T06:56:30.981Z,631.00
2023-03-14T06:57:30.989Z,625.00
2023-03-14T06:58:31.011Z,637.00
2023-03-14T06:59:31.047Z,644.00
2023-03-14T07:00:31.178Z,647.00
2023-03-14T07:01:30.187Z,695.00
2023-03-14T07:02:42.331Z,674.00
2023-03-14T07:03:31.073Z,674.00
2023-03-14T07:04:31.114Z,674.00
2023-03-14T07:06:30.068Z,700.00
2023-03-14T07:14:29.992Z,801.00
2023-03-14T07:21:29.941Z,948.00
2023-03-14T07:25:29.916Z,969.00
2023-03-14T07:35:29.841Z,1071.00
2023-03-14T07:37:30.803Z,1108.00
2023-03-14T07:38:30.802Z,1148.00
2023-03-14T07:39:30.791Z,1130.00
2023-03-14T07:40:30.799Z,1168.00
2023-03-14T07:41:30.800Z,1139.00
2023-03-14T07:42:30.838Z,1158.00
2023-03-14T07:44:29.969Z,1209.00
2023-03-14T07:45:30.987Z,1224.00
2023-03-14T07:46:31.101Z,1228.00
2023-03-14T07:47:31.064Z,1224.00
2023-03-14T07:51:30.230Z,1286.00
2023-03-14T07:52:31.261Z,1289.00
2023-03-14T07:53:31.304Z,1294.00
2023-03-14T07:54:31.323Z,1326.00
2023-03-14T07:56:31.369Z,1339.00
2023-03-14T07:57:31.413Z,1343.00
2023-03-14T07:58:31.454Z,1335.00
2023-03-14T07:59:31.518Z,1345.00
2023-03-14T08:00:30.608Z,1342.00
2023-03-14T08:01:31.643Z,1329.00
2023-03-14T08:02:31.701Z,1353.00
2023-03-14T08:04:31.802Z,1320.00
2023-03-14T08:05:31.864Z,1310.00
2023-03-14T08:06:31.906Z,1300.00
2023-03-14T08:08:32.049Z,1272.00
2023-03-14T08:09:32.108Z,1277.00
2023-03-14T08:10:31.170Z,1272.00
2023-03-14T08:11:31.222Z,1281.00
2023-03-14T08:12:32.273Z,1266.00
2023-03-14T08:13:31.307Z,1261.00
2023-03-14T08:15:32.369Z,1265.00
2023-03-14T08:16:31.535Z,1243.00
2023-03-14T08:17:31.426Z,1247.00
2023-03-14T08:18:32.485Z,1252.00
2023-03-14T08:19:32.504Z,1244.00
2023-03-14T08:20:32.526Z,1257.00
2023-03-14T08:21:32.574Z,1242.00
2023-03-14T08:22:32.611Z,1240.00
2023-03-14T08:23:32.357Z,1248.00
2023-03-14T08:24:32.660Z,1229.00
2023-03-14T08:27:32.761Z,1203.00
2023-03-14T08:28:31.817Z,1233.00
2023-03-14T08:30:32.838Z,1219.00
2023-03-14T08:31:32.935Z,1211.00
2023-03-14T08:32:32.935Z,1212.00
2023-03-14T08:33:31.830Z,1207.00
2023-03-14T08:34:32.861Z,1211.00
2023-03-14T08:35:32.842Z,1192.00
2023-03-14T08:36:32.881Z,1186.00
2023-03-14T08:37:32.836Z,1175.00
2023-03-14T08:38:32.862Z,1179.00
2023-03-14T08:39:31.816Z,1175.00
2023-03-14T08:40:32.816Z,1171.00
2023-03-14T08:41:31.818Z,1168.00
2023-03-14T08:42:32.835Z,1160.00
2023-03-14T08:43:32.818Z,1159.00
2023-03-14T08:44:32.918Z,1167.00
2023-03-14T08:45:32.818Z,1156.00
2023-03-14T08:46:32.827Z,1142.00
2023-03-14T08:47:31.815Z,1152.00
2023-03-14T08:48:32.840Z,1123.00
2023-03-14T08:49:32.893Z,1133.00
2023-03-14T08:50:31.898Z,1138.00
2023-03-14T08:51:32.848Z,1100.00
2023-03-14T08:52:32.963Z,1091.00
2023-03-14T08:53:31.867Z,1075.00
2023-03-14T08:54:32.872Z,1085.00
2023-03-14T08:55:32.889Z,1089.00
2023-03-14T08:56:32.911Z,1081.00
2023-03-14T08:57:32.878Z,1089.00
2023-03-14T08:58:32.872Z,1103.00
2023-03-14T08:59:32.890Z,1088.00
2023-03-14T09:00:31.897Z,1087.00
2023-03-14T09:01:33.050Z,1090.00
2023-03-14T09:02:32.956Z,1071.00
2023-03-14T09:03:32.921Z,1071.00
2023-03-14T09:04:33.100Z,1064.00
2023-03-14T09:05:32.966Z,1050.00
2023-03-14T09:06:32.984Z,1034.00
2023-03-14T09:07:32.996Z,1039.00
2023-03-14T09:08:33.041Z,1040.00
2023-03-14T09:09:33.034Z,1043.00
2023-03-14T09:10:33.056Z,1034.00
2023-03-14T09:11:33.092Z,1054.00
2023-03-14T09:12:33.105Z,1039.00
2023-03-14T09:13:33.156Z,1047.00
2023-03-14T09:14:33.162Z,1034.00
2023-03-14T09:15:33.190Z,1024.00
2023-03-14T09:16:33.296Z,1032.00
2023-03-14T09:17:33.241Z,1028.00
2023-03-14T09:18:33.332Z,1017.00
2023-03-14T09:19:33.315Z,1003.00
2023-03-14T09:20:33.349Z,996.00
2023-03-14T09:21:33.340Z,1010.00
2023-03-14T09:22:33.342Z,985.00
2023-03-14T09:23:33.391Z,994.00
2023-03-14T09:24:33.414Z,975.00
2023-03-14T09:25:33.435Z,987.00
2023-03-14T09:26:32.448Z,990.00
2023-03-14T09:27:33.464Z,972.00
2023-03-14T09:28:33.486Z,958.00
2023-03-14T09:29:33.509Z,955.00
2023-03-14T09:30:33.598Z,973.00
2023-03-14T09:31:33.593Z,967.00
2023-03-14T09:32:33.658Z,954.00
2023-03-14T09:33:33.614Z,950.00
2023-03-14T09:34:35.842Z,940.00
2023-03-14T09:35:32.664Z,942.00
2023-03-14T09:36:33.709Z,930.00
2023-03-14T09:37:33.638Z,920.00
2023-03-14T09:38:33.609Z,931.00
2023-03-14T09:39:33.618Z,938.00
2023-03-14T09:40:33.620Z,926.00
2023-03-14T09:41:32.617Z,927.00
2023-03-14T09:42:33.605Z,893.00
2023-03-14T09:43:33.609Z,875.00
2023-03-14T09:44:33.576Z,844.00
2023-03-14T09:45:33.552Z,768.00
2023-03-14T09:47:32.547Z,859.00
2023-03-14T09:48:32.576Z,886.00
2023-03-14T09:52:33.538Z,950.00
2023-03-14T09:53:33.495Z,944.00
2023-03-14T09:55:35.525Z,1006.00
2023-03-14T09:56:32.921Z,1008.00
2023-03-14T09:57:32.450Z,1013.00
2023-03-14T09:58:32.461Z,1015.00
2023-03-14T09:59:32.454Z,1014.00
2023-03-14T10:00:32.445Z,1028.00
2023-03-14T10:01:33.553Z,1041.00
2023-03-14T10:02:32.415Z,1065.00
2023-03-14T10:03:32.419Z,1080.00
2023-03-14T10:04:33.452Z,1106.00
2023-03-14T10:05:32.419Z,1122.00
2023-03-14T10:07:33.389Z,1232.00
2023-03-14T10:08:33.425Z,1207.00
2023-03-14T10:09:32.387Z,1222.00
2023-03-14T10:10:33.383Z,1238.00
2023-03-14T10:11:33.356Z,1238.00
2023-03-14T10:12:33.447Z,1220.00
2023-03-14T10:13:33.359Z,1224.00
2023-03-14T10:15:32.363Z,1211.00
2023-03-14T10:16:33.405Z,1216.00
2023-03-14T10:17:33.328Z,1232.00
2023-03-14T10:18:33.337Z,1236.00
2023-03-14T10:19:33.303Z,1245.00
2023-03-14T10:20:33.329Z,1273.00
2023-03-14T10:21:32.298Z,1294.00
2023-03-14T10:22:33.278Z,1280.00
2023-03-14T10:24:33.293Z,1297.00
2023-03-14T10:25:33.257Z,1313.00
2023-03-14T10:26:33.265Z,1306.00
2023-03-14T10:27:33.242Z,1334.00
2023-03-14T10:28:33.297Z,1352.00
2023-03-14T10:29:32.241Z,1331.00
2023-03-14T10:30:32.372Z,1372.00
2023-03-14T10:31:33.228Z,1380.00
2023-03-14T10:32:33.256Z,1373.00
2023-03-14T10:33:33.233Z,1391.00
2023-03-14T10:34:33.199Z,1414.00
2023-03-14T10:35:32.277Z,1424.00
2023-03-14T10:36:33.244Z,1394.00
2023-03-14T10:37:33.186Z,1415.00
2023-03-14T10:38:32.180Z,1455.00
2023-03-14T10:39:33.184Z,1500.00
2023-03-14T10:40:33.284Z,1486.00
2023-03-14T10:41:33.158Z,1458.00
2023-03-14T10:42:33.170Z,1474.00
2023-03-14T10:43:33.218Z,1490.00
2023-03-14T10:44:33.142Z,1486.00
2023-03-14T10:45:33.151Z,1475.00
2023-03-14T10:46:33.177Z,1509.00
2023-03-14T10:47:33.127Z,1514.00
2023-03-14T10:48:33.123Z,1506.00
2023-03-14T10:49:32.090Z,1504.00
2023-03-14T10:50:33.109Z,1472.00
2023-03-14T10:51:33.429Z,1478.00
2023-03-14T10:52:51.288Z,1477.00
2023-03-14T10:53:33.088Z,1477.00
2023-03-14T10:54:33.072Z,1455.00
2023-03-14T10:55:33.060Z,1412.00
2023-03-14T10:56:33.081Z,1385.00
2023-03-14T10:57:33.051Z,1409.00
2023-03-14T10:58:33.437Z,1415.00
2023-03-14T10:59:33.024Z,1396.00
2023-03-14T11:00:32.016Z,1384.00
2023-03-14T11:01:33.065Z,1372.00
2023-03-14T11:02:32.016Z,1375.00
2023-03-14T11:03:32.995Z,1377.00
2023-03-14T11:04:33.136Z,1376.00
2023-03-14T11:05:33.041Z,1382.00
2023-03-14T11:06:33.032Z,1388.00
2023-03-14T11:07:31.985Z,1401.00
2023-03-14T11:08:32.989Z,1400.00
2023-03-14T11:09:31.950Z,1387.00
2023-03-14T11:10:31.947Z,1387.00
2023-03-14T11:11:32.956Z,1378.00
2023-03-14T11:12:32.966Z,1390.00
2023-03-14T11:13:32.927Z,1383.00
2023-03-14T11:14:32.920Z,1383.00
2023-03-14T11:15:32.956Z,1371.00
2023-03-14T11:16:32.963Z,1362.00
2023-03-14T11:17:33.028Z,1372.00
2023-03-14T11:18:33.084Z,1374.00
2023-03-14T11:19:34.480Z,1366.00
2023-03-14T11:20:33.145Z,1366.00
2023-03-14T11:21:33.124Z,1359.00
2023-03-14T11:22:33.132Z,1352.00
2023-03-14T11:23:33.115Z,1353.00
2023-03-14T11:24:32.112Z,1342.00
2023-03-14T11:25:33.112Z,1327.00
2023-03-14T11:26:32.107Z,1339.00
2023-03-14T11:27:33.094Z,1334.00
2023-03-14T11:28:33.097Z,1340.00
2023-03-14T11:29:32.070Z,1326.00
2023-03-14T11:30:33.071Z,1322.00
2023-03-14T11:31:33.166Z,1321.00
2023-03-14T11:32:33.083Z,1320.00
2023-03-14T11:33:33.044Z,1318.00
2023-03-14T11:34:33.039Z,1326.00
2023-03-14T11:35:32.677Z,1328.00
2023-03-14T11:36:33.030Z,1328.00
2023-03-14T11:37:33.025Z,1322.00
2023-03-14T11:38:33.019Z,1310.00
2023-03-14T11:39:31.992Z,1303.00
2023-03-14T11:40:32.993Z,1293.00
2023-03-14T11:41:32.990Z,1283.00
2023-03-14T11:42:32.984Z,1279.00
2023-03-14T11:43:33.010Z,1282.00
2023-03-14T11:44:33.093Z,1279.00
2023-03-14T11:45:33.928Z,1240.00
2023-03-14T11:46:33.505Z,1264.00
2023-03-14T11:47:33.187Z,1239.00
2023-03-14T11:48:33.266Z,1234.00
2023-03-14T11:49:33.303Z,1234.00
2023-03-14T11:50:33.355Z,1218.00
2023-03-14T11:51:34.103Z,1218.00
2023-03-14T11:52:33.429Z,1220.00
2023-03-14T11:53:33.468Z,1202.00
2023-03-14T11:54:33.082Z,1196.00
2023-03-14T11:55:33.555Z,1203.00
2023-03-14T11:56:33.625Z,1183.00
2023-03-14T11:57:33.910Z,1172.00
2023-03-14T12:00:33.811Z,1133.00
2023-03-14T12:01:33.805Z,1127.00
2023-03-14T12:02:32.797Z,1126.00
2023-03-14T12:03:33.993Z,1111.00
2023-03-14T12:04:33.841Z,1120.00
2023-03-14T12:05:33.888Z,1108.00
2023-03-14T12:06:33.927Z,1095.00
2023-03-14T12:08:33.994Z,1082.00
2023-03-14T12:09:34.019Z,1061.00
2023-03-14T12:10:34.056Z,1073.00
2023-03-14T12:11:34.106Z,1081.00
2023-03-14T12:12:34.106Z,1071.00
2023-03-14T12:13:33.148Z,1064.00
2023-03-14T12:14:33.175Z,1053.00
2023-03-14T12:15:34.211Z,1044.00
2023-03-14T12:16:33.466Z,1042.00
2023-03-14T12:17:34.303Z,1024.00
2023-03-14T12:18:34.337Z,1017.00
2023-03-14T12:19:34.364Z,1018.00
2023-03-14T12:20:34.399Z,1004.00
2023-03-14T12:22:34.456Z,980.00
2023-03-14T12:23:33.461Z,980.00
2023-03-14T12:24:33.534Z,960.00
2023-03-14T12:25:34.497Z,962.00
2023-03-14T12:26:34.506Z,947.00
2023-03-14T12:27:33.550Z,948.00
2023-03-14T12:28:34.671Z,950.00
2023-03-14T12:29:33.587Z,936.00
2023-03-14T12:30:34.614Z,936.00
2023-03-14T12:31:35.004Z,926.00
2023-03-14T12:32:34.768Z,943.00
2023-03-14T12:33:33.682Z,929.00
2023-03-14T12:34:34.683Z,920.00
2023-03-14T12:35:34.748Z,921.00
2023-03-14T12:36:34.750Z,912.00
2023-03-14T12:37:34.944Z,910.00
2023-03-14T12:38:34.782Z,895.00
2023-03-14T12:39:34.811Z,898.00
2023-03-14T12:40:34.853Z,874.00
2023-03-14T12:41:33.861Z,871.00
2023-03-14T12:42:44.530Z,858.00
2023-03-14T12:43:34.997Z,860.00
2023-03-14T12:44:34.880Z,862.00
2023-03-14T12:45:34.914Z,864.00
2023-03-14T12:46:34.910Z,869.00
2023-03-14T12:47:34.917Z,868.00
2023-03-14T12:48:34.827Z,851.00
2023-03-14T12:49:34.829Z,856.00
2023-03-14T12:50:34.873Z,841.00
2023-03-14T12:51:34.795Z,827.00
2023-03-14T12:52:34.806Z,824.00
2023-03-14T12:53:34.792Z,827.00
2023-03-14T12:54:34.779Z,810.00
2023-03-14T12:55:34.796Z,795.00
2023-03-14T12:56:35.439Z,812.00
2023-03-14T12:57:33.770Z,810.00
2023-03-14T12:58:34.757Z,807.00
2023-03-14T12:59:34.749Z,795.00
2023-03-14T13:00:34.744Z,779.00
2023-03-14T13:01:34.841Z,767.00
2023-03-14T13:02:34.748Z,765.00
2023-03-14T13:03:34.765Z,776.00
2023-03-14T13:04:39.812Z,781.00
2023-03-14T13:05:34.707Z,782.00
2023-03-14T13:06:34.695Z,782.00
2023-03-14T13:07:34.698Z,774.00
2023-03-14T13:08:34.672Z,749.00
2023-03-14T13:09:34.817Z,754.00
2023-03-14T13:10:38.542Z,747.00
2023-03-14T13:11:33.680Z,749.00